Time;durP1;ratioP1;P1;durP2;ratioP2;P2;SDS_P1;SDS_P2;PMS_P1;PMS_P2;Temp;Humidity;BMP_temperature;BMP_pressure;BME280_temperature;BME280_humidity;BME280_pressure;Samples;Min_cycle;Max_cycle;Signal;HPM_P1;HPM_P2
2021/01/16 00:04:35;;;;;;;19.45;11.10;;;;;;;-2.49;100.00;94515.03;10529481;28;20347;-74
2021/01/16 00:09:36;;;;;;;23.25;10.57;;;;;;;-2.61;100.00;94510.34;10527301;28;20039;-74
2021/01/16 00:14:36;;;;;;;20.38;10.60;;;;;;;-2.55;100.00;94502.66;10529292;28;20016;-74
2021/01/16 00:19:36;;;;;;;14.43;8.07;;;;;;;-2.52;100.00;94507.53;10528506;28;20040;-74
2021/01/16 00:24:37;;;;;;;14.37;8.30;;;;;;;-2.46;100.00;94493.59;10529070;28;20314;-74
2021/01/16 00:29:37;;;;;;;16.98;9.02;;;;;;;-2.36;100.00;94494.00;10511216;28;20277;-74
2021/01/16 00:34:38;;;;;;;12.23;7.35;;;;;;;-2.44;100.00;94491.56;10511013;28;20023;-74
2021/01/16 00:39:38;;;;;;;12.23;6.75;;;;;;;-2.66;100.00;94488.25;10528779;28;20467;-74
2021/01/16 00:44:39;;;;;;;14.63;7.43;;;;;;;-2.82;100.00;94476.25;10528770;28;20027;-74
2021/01/16 00:49:39;;;;;;;13.37;7.07;;;;;;;-3.05;100.00;94480.00;10528440;28;20024;-74
2021/01/16 00:54:40;;;;;;;15.07;7.80;;;;;;;-2.86;100.00;94480.28;10527777;28;20353;-74
2021/01/16 00:59:40;;;;;;;11.63;6.22;;;;;;;-2.76;100.00;94481.53;10528277;28;20097;-74
2021/01/16 01:04:40;;;;;;;13.90;7.27;;;;;;;-2.71;100.00;94473.06;10527868;28;20020;-74
2021/01/16 01:09:42;;;;;;;13.65;7.65;;;;;;;-2.56;100.00;94472.09;10510132;28;20776;-74
2021/01/16 01:14:42;;;;;;;11.80;7.25;;;;;;;-2.50;100.00;94479.19;10530567;28;20031;-74
2021/01/16 01:19:44;;;;;;;10.53;6.80;;;;;;;-2.62;100.00;94465.81;10530477;28;20048;-74
2021/01/16 01:24:44;;;;;;;13.15;6.03;;;;;;;-2.60;100.00;94474.31;10530164;28;20361;-74
2021/01/16 01:29:44;;;;;;;12.15;6.07;;;;;;;-2.46;100.00;94475.97;10530506;28;20024;-74
2021/01/16 01:34:45;;;;;;;9.73;5.63;;;;;;;-2.47;100.00;94474.34;10530027;28;20024;-74
2021/01/16 01:39:45;;;;;;;9.67;4.87;;;;;;;-2.47;100.00;94466.47;10529483;28;20349;-74
2021/01/16 01:44:47;;;;;;;9.93;6.25;;;;;;;-2.39;100.00;94465.44;10529670;28;20290;-75
2021/01/16 01:49:47;;;;;;;8.65;4.85;;;;;;;-2.38;100.00;94443.41;10529973;28;20043;-75
2021/01/16 01:54:52;;;;;;;8.93;5.68;;;;;;;-2.39;100.00;94446.22;10529455;28;20074;-75
2021/01/16 01:59:54;;;;;;;10.15;5.88;;;;;;;-2.52;100.00;94447.03;10530040;28;20110;-75
2021/01/16 02:04:58;;;;;;;17.58;6.32;;;;;;;-2.43;100.00;94451.91;10514199;28;20020;-75
2021/01/16 02:09:58;;;;;;;11.82;7.30;;;;;;;-2.61;100.00;94439.31;10538178;28;20024;-74
2021/01/16 02:15:18;;;;;;;12.67;5.97;;;;;;;-2.46;100.00;94449.66;10537892;28;20399;-75
2021/01/16 02:20:41;;;;;;;13.25;6.30;;;;;;;-2.39;100.00;94444.41;10537707;28;20302;-75
2021/01/16 02:25:41;;;;;;;9.88;5.78;;;;;;;-2.27;99.94;94449.91;10537353;28;20036;-75
2021/01/16 02:30:43;;;;;;;11.77;6.68;;;;;;;-2.35;100.00;94442.19;10537579;28;20028;-75
2021/01/16 02:35:57;;;;;;;10.40;5.97;;;;;;;-2.26;99.81;94444.44;10537484;28;20123;-74
2021/01/16 02:41:03;;;;;;;12.40;6.95;;;;;;;-2.37;100.00;94439.75;10537266;28;20016;-74
2021/01/16 02:46:13;;;;;;;10.75;5.50;;;;;;;-2.36;100.00;94446.63;10537087;28;20028;-74
2021/01/16 02:51:21;;;;;;;9.25;5.88;;;;;;;-2.38;100.00;94438.13;10536571;28;20111;-74
2021/01/16 02:56:27;;;;;;;13.82;6.85;;;;;;;-2.38;100.00;94434.69;10536685;28;20783;-74
2021/01/16 03:01:27;;;;;;;10.88;6.70;;;;;;;-2.47;100.00;94440.16;10536244;28;20055;-75
2021/01/16 03:06:29;;;;;;;10.23;7.00;;;;;;;-2.42;100.00;94436.91;10536009;28;20559;-74
2021/01/16 03:11:31;;;;;;;12.48;7.70;;;;;;;-2.59;100.00;94437.28;10535271;28;20781;-73
2021/01/16 03:16:37;;;;;;;20.45;9.32;;;;;;;-2.69;100.00;94433.41;10535340;28;20023;-74
2021/01/16 03:21:41;;;;;;;15.45;8.82;;;;;;;-2.60;100.00;94434.84;10534627;28;20044;-74
2021/01/16 03:26:41;;;;;;;11.73;7.45;;;;;;;-2.50;100.00;94429.19;10535035;28;20494;-74
2021/01/16 03:31:42;;;;;;;20.20;9.73;;;;;;;-2.69;100.00;94426.34;10535526;28;20146;-74
2021/01/16 03:36:43;;;;;;;18.17;10.00;;;;;;;-3.01;100.00;94441.00;10534666;28;20020;-73
2021/01/16 03:41:43;;;;;;;12.32;8.27;;;;;;;-3.18;100.00;94432.63;10534939;28;20761;-74
2021/01/16 03:46:44;;;;;;;19.23;11.27;;;;;;;-3.11;100.00;94431.66;10534263;28;20032;-74
2021/01/16 03:51:45;;;;;;;18.67;10.30;;;;;;;-3.07;100.00;94432.06;10533958;28;20027;-74
2021/01/16 03:56:45;;;;;;;18.40;10.45;;;;;;;-2.93;100.00;94438.19;10534318;28;20285;-74
2021/01/16 04:01:46;;;;;;;15.77;9.70;;;;;;;-2.80;100.00;94432.97;10503198;28;20039;-74
2021/01/16 04:06:46;;;;;;;16.75;11.10;;;;;;;-2.75;100.00;94435.00;10491396;28;20115;-74
2021/01/16 04:11:47;;;;;;;18.93;9.67;;;;;;;-2.64;100.00;94431.81;10491298;28;20081;-74
2021/01/16 04:16:47;;;;;;;20.25;10.00;;;;;;;-2.50;100.00;94442.34;10491241;28;20768;-74
2021/01/16 04:21:48;;;;;;;20.67;10.13;;;;;;;-2.62;100.00;94427.16;10472038;28;20048;-74
2021/01/16 04:26:49;;;;;;;13.20;7.85;;;;;;;-2.65;100.00;94432.81;10490283;28;20044;-74
2021/01/16 04:31:50;;;;;;;18.05;9.15;;;;;;;-2.87;100.00;94440.03;10472975;28;20493;-75
2021/01/16 04:36:50;;;;;;;19.23;10.57;;;;;;;-2.97;100.00;94445.66;10490473;28;20028;-74
2021/01/16 04:41:53;;;;;;;19.53;10.77;;;;;;;-2.89;100.00;94447.28;10472085;28;20491;-74
2021/01/16 04:46:56;;;;;;;22.00;11.88;;;;;;;-2.93;100.00;94440.81;10489970;28;20028;-74
2021/01/16 04:51:57;;;;;;;17.35;10.27;;;;;;;-3.34;100.00;94452.16;10489506;28;20035;-75
2021/01/16 04:56:58;;;;;;;20.73;10.02;;;;;;;-3.15;100.00;94448.03;10490099;28;20493;-75
2021/01/16 05:02:09;;;;;;;21.77;10.75;;;;;;;-3.40;100.00;94453.75;10489480;28;20028;-75
2021/01/16 05:07:10;;;;;;;22.23;10.45;;;;;;;-3.38;100.00;94464.84;10489565;28;20028;-77
2021/01/16 05:12:19;;;;;;;19.42;10.00;;;;;;;-3.38;100.00;94464.84;10504186;28;20828;-74
2021/01/16 05:17:21;;;;;;;20.58;9.63;;;;;;;-3.65;100.00;94469.94;10527156;28;20034;-73
2021/01/16 05:22:22;;;;;;;21.88;10.13;;;;;;;-3.82;100.00;94468.63;10526136;28;20051;-73
2021/01/16 05:27:31;;;;;;;13.65;8.98;;;;;;;-3.77;100.00;94471.47;10527331;28;20097;-74
2021/01/16 05:32:32;;;;;;;15.48;9.20;;;;;;;-3.77;100.00;94466.22;10524403;28;20070;-73
2021/01/16 05:37:32;;;;;;;20.75;9.02;;;;;;;-3.93;100.00;94458.63;10526185;28;20032;-73
2021/01/16 05:42:32;;;;;;;21.00;10.50;;;;;;;-4.15;100.00;94466.53;10525997;28;20020;-73
2021/01/16 05:47:34;;;;;;;22.77;9.60;;;;;;;-4.26;100.00;94482.78;10525670;28;20270;-74
2021/01/16 05:52:36;;;;;;;23.55;10.50;;;;;;;-4.42;100.00;94474.16;10526234;28;20023;-74
2021/01/16 05:57:44;;;;;;;15.48;9.13;;;;;;;-4.53;100.00;94477.28;10525488;28;20035;-74
2021/01/16 06:02:44;;;;;;;24.45;10.02;;;;;;;-4.48;100.00;94467.84;10523084;28;20086;-74
2021/01/16 06:07:45;;;;;;;15.35;9.73;;;;;;;-4.54;100.00;94478.25;10508282;28;20020;-74
2021/01/16 06:12:47;;;;;;;15.68;8.65;;;;;;;-4.52;100.00;94463.13;10525646;28;20020;-74
2021/01/16 06:17:50;;;;;;;19.23;9.57;;;;;;;-4.38;100.00;94472.78;10521962;28;20035;-74
2021/01/16 06:22:50;;;;;;;20.25;9.27;;;;;;;-4.24;100.00;94478.97;10528493;28;20079;-74
2021/01/16 06:27:51;;;;;;;22.10;9.25;;;;;;;-4.23;100.00;94462.22;10493548;28;20511;-74
2021/01/16 06:32:55;;;;;;;21.40;10.85;;;;;;;-4.20;100.00;94463.66;10487224;28;20158;-72
2021/01/16 06:37:55;;;;;;;16.52;9.40;;;;;;;-4.10;100.00;94464.16;10486758;28;20759;-73
2021/01/16 06:42:57;;;;;;;25.33;10.27;;;;;;;-4.14;100.00;94481.28;10468494;28;20038;-73
2021/01/16 06:48:01;;;;;;;16.88;10.25;;;;;;;-4.24;100.00;94465.03;10486669;28;20451;-73
2021/01/16 06:53:02;;;;;;;20.48;10.00;;;;;;;-4.03;100.00;94465.03;10491725;28;20520;-74
2021/01/16 06:58:16;;;;;;;19.98;9.63;;;;;;;-3.96;100.00;94467.69;10494543;28;20407;-73
2021/01/16 07:03:17;;;;;;;19.67;7.57;;;;;;;-3.55;96.42;94468.81;10532501;28;20028;-74
2021/01/16 07:08:18;;;;;;;13.00;6.85;;;;;;;-3.63;89.47;94465.31;10535042;28;20031;-74
2021/01/16 07:13:18;;;;;;;13.00;7.00;;;;;;;-3.84;90.11;94468.78;10534744;28;20085;-73
2021/01/16 07:18:19;;;;;;;13.48;8.85;;;;;;;-3.68;92.90;94470.34;10507899;28;20036;-74
2021/01/16 07:23:20;;;;;;;17.27;7.97;;;;;;;-3.76;89.02;94470.47;10494726;28;20067;-74
2021/01/16 07:28:24;;;;;;;13.45;8.35;;;;;;;-3.39;91.68;94468.50;10534285;28;20479;-72
2021/01/16 07:33:28;;;;;;;20.67;8.95;;;;;;;-3.42;92.90;94468.06;10503671;28;20052;-74
2021/01/16 07:38:31;;;;;;;15.88;8.43;;;;;;;-3.54;100.00;94465.19;10492344;28;20021;-72
2021/01/16 07:43:56;;;;;;;17.58;9.65;;;;;;;-3.81;100.00;94468.44;10492330;28;20028;-73
2021/01/16 07:48:59;;;;;;;20.52;9.50;;;;;;;-3.39;100.00;94465.88;10534211;28;20058;-73
2021/01/16 07:54:04;;;;;;;23.95;9.77;;;;;;;-3.10;100.00;94469.25;10533306;28;20027;-73
2021/01/16 07:59:18;;;;;;;23.95;9.15;;;;;;;-2.83;100.00;94461.47;10534104;28;20057;-73
2021/01/16 08:04:43;;;;;;;21.00;8.63;;;;;;;-3.22;100.00;94457.66;10532562;28;20062;-73
2021/01/16 08:09:50;;;;;;;15.85;9.02;;;;;;;-3.04;100.00;94463.22;10532711;28;20501;-73
2021/01/16 08:14:51;;;;;;;18.27;11.70;;;;;;;-3.20;100.00;94474.84;10573526;28;20058;-73
2021/01/16 08:20:00;;;;;;;29.05;11.15;;;;;;;-3.00;100.00;94474.16;10556952;28;20122;-78
2021/01/16 08:25:03;;;;;;;21.25;9.98;;;;;;;-2.85;100.00;94481.91;10574381;28;20891;-76
2021/01/16 08:30:13;;;;;;;31.17;11.50;;;;;;;-2.82;100.00;94481.50;10574759;28;20463;-75
2021/01/16 08:35:21;;;;;;;24.38;11.52;;;;;;;-2.71;100.00;94486.19;10566197;28;20020;-76
2021/01/16 08:40:33;;;;;;;17.92;9.57;;;;;;;-2.84;100.00;94486.97;10567313;28;20027;-75
2021/01/16 08:45:34;;;;;;;19.25;8.80;;;;;;;-3.10;100.00;94492.91;10560953;28;20028;-75
2021/01/16 08:50:35;;;;;;;21.67;9.57;;;;;;;-2.94;100.00;94495.22;10567057;28;20043;-75
2021/01/16 08:55:35;;;;;;;18.65;9.73;;;;;;;-2.94;100.00;94497.84;10541679;28;20023;-75
2021/01/16 09:00:37;;;;;;;12.13;6.30;;;;;;;-2.92;100.00;94498.47;10544702;28;20808;-75
2021/01/16 09:05:39;;;;;;;22.92;7.97;;;;;;;-2.75;98.29;94485.81;10565865;28;20795;-75
2021/01/16 09:10:39;;;;;;;17.77;7.63;;;;;;;-2.50;96.55;94477.38;10567367;28;20038;-75
2021/01/16 09:15:42;;;;;;;18.33;6.97;;;;;;;-2.26;93.02;94476.03;10566031;28;20019;-75
2021/01/16 09:21:01;;;;;;;14.07;7.00;;;;;;;-2.36;92.71;94480.84;10534707;28;20946;-75
2021/01/16 09:26:04;;;;;;;;;;;;;;;-2.60;88.78;94464.59;10525722;28;20032;-75
2021/01/16 09:31:16;;;;;;;29.17;9.23;;;;;;;-2.49;87.81;94467.66;10508046;28;19915;-75
2021/01/16 09:37:00;;;;;;;17.60;8.43;;;;;;;-2.72;90.80;94468.00;10522628;28;20406;-75
2021/01/16 09:42:18;;;;;;;20.25;9.98;;;;;;;-2.20;90.30;94453.34;10569308;28;20051;-75
2021/01/16 09:47:25;;;;;;;;;;;;;;;-1.64;87.18;94444.22;10569974;28;20550;-76
2021/01/16 09:52:25;;;;;;;22.13;7.22;;;;;;;-1.46;79.45;94433.06;10551976;28;20010;-75
2021/01/16 09:57:33;;;;;;;14.10;6.40;;;;;;;-2.81;82.48;94427.91;10569668;28;20027;-74
2021/01/16 10:02:35;;;;;;;13.98;6.97;;;;;;;-2.90;84.19;94423.81;10570028;28;20024;-76
2021/01/16 10:07:39;;;;;;;13.93;6.75;;;;;;;-2.02;75.59;94433.50;10569967;28;20054;-76
2021/01/16 10:12:41;;;;;;;9.90;5.38;;;;;;;-1.85;64.43;94415.50;10568651;28;20030;-76
2021/01/16 10:17:46;;;;;;;11.43;4.55;;;;;;;-3.10;68.32;94428.03;10563062;28;20019;-76
2021/01/16 10:22:52;;;;;;;17.35;8.43;;;;;;;-2.85;73.08;94429.31;10568363;28;20055;-74
2021/01/16 10:27:53;;;;;;;12.60;6.65;;;;;;;-1.84;59.22;94417.91;10564888;28;20042;-74
2021/01/16 10:32:53;;;;;;;11.93;5.72;;;;;;;-1.20;55.46;94405.00;10568025;28;20486;-76
2021/01/16 10:38:00;;;;;;;14.95;6.03;;;;;;;-0.95;56.37;94399.88;10541154;28;20036;-76
2021/01/16 10:43:00;;;;;;;11.68;4.18;;;;;;;-0.71;52.43;94390.41;10570315;28;20028;-76
2021/01/16 10:48:31;;;;;;;8.77;4.57;;;;;;;-2.12;51.86;94389.16;10578777;28;20036;-76
2021/01/16 10:53:37;;;;;;;10.13;4.93;;;;;;;-2.58;53.46;94381.03;10562399;28;20059;-76
2021/01/16 10:58:39;;;;;;;7.30;4.03;;;;;;;-2.09;51.27;94372.97;10579182;28;20383;-75
2021/01/16 11:03:40;;;;;;;7.47;3.45;;;;;;;-0.83;48.96;94364.91;10578385;28;20084;-76
2021/01/16 11:08:40;;;;;;;13.43;3.47;;;;;;;-0.83;49.45;94359.63;10560545;28;20459;-73
2021/01/16 11:13:45;;;;;;;10.70;3.37;;;;;;;-0.44;47.49;94357.75;10557861;28;20019;-74
2021/01/16 11:18:47;;;;;;;7.80;3.60;;;;;;;-1.43;48.07;94340.41;10574290;28;20357;-73
2021/01/16 11:24:06;;;;;;;9.82;3.90;;;;;;;-0.19;48.03;94348.00;10574984;28;20059;-73
2021/01/16 11:29:16;;;;;;;11.10;4.38;;;;;;;0.54;45.36;94329.03;10557205;28;20035;-74
2021/01/16 11:34:22;;;;;;;6.05;3.42;;;;;;;1.05;45.28;94327.81;10576245;28;20463;-74
2021/01/16 11:39:50;;;;;;;14.60;4.10;;;;;;;2.93;40.47;94316.75;10574299;28;20059;-74
2021/01/16 11:45:01;;;;;;;5.38;3.20;;;;;;;2.17;38.73;94314.94;10576180;28;20023;-74
2021/01/16 11:50:06;;;;;;;10.30;3.95;;;;;;;1.12;40.55;94328.53;10575749;28;20024;-74
2021/01/16 11:55:10;;;;;;;7.60;4.15;;;;;;;0.08;44.33;94318.72;10574987;28;20450;-74
2021/01/16 12:00:19;;;;;;;5.80;3.17;;;;;;;-0.45;46.34;94317.34;10575223;28;20473;-73
2021/01/16 12:05:22;;;;;;;14.25;5.40;;;;;;;-0.71;47.73;94310.44;10573832;28;20474;-74
2021/01/16 12:10:25;;;;;;;11.77;5.63;;;;;;;-0.82;47.91;94319.84;10583273;28;20042;-74
2021/01/16 12:15:28;;;;;;;6.85;3.70;;;;;;;-0.81;47.47;94304.81;10555606;28;20030;-74
2021/01/16 12:20:28;;;;;;;8.98;5.05;;;;;;;-0.48;47.35;94306.41;10573776;28;20125;-73
2021/01/16 12:25:34;;;;;;;6.95;4.07;;;;;;;-0.97;47.34;94309.56;10573446;28;20062;-74
2021/01/16 12:30:38;;;;;;;6.38;4.20;;;;;;;-0.81;48.58;94315.34;10554843;28;20078;-74
2021/01/16 12:35:38;;;;;;;10.27;4.70;;;;;;;-0.95;47.91;94318.09;10573486;28;20024;-74
2021/01/16 12:40:39;;;;;;;10.20;5.07;;;;;;;-1.37;48.92;94317.66;10573020;28;20107;-74
2021/01/16 12:45:39;;;;;;;10.57;5.13;;;;;;;-2.96;50.37;94322.88;10541892;28;20309;-74
2021/01/16 12:50:40;;;;;;;6.50;4.30;;;;;;;-3.80;55.56;94333.50;10530213;28;20071;-74
2021/01/16 12:55:41;;;;;;;9.02;5.03;;;;;;;-3.27;56.56;94340.78;10529291;28;20258;-73
2021/01/16 13:00:41;;;;;;;10.68;5.00;;;;;;;-3.02;58.38;94337.66;10529205;28;20410;-73
2021/01/16 13:05:42;;;;;;;9.40;4.75;;;;;;;-2.98;58.10;94348.59;10531084;28;20032;-74
2021/01/16 13:10:46;;;;;;;19.85;7.57;;;;;;;-3.42;58.33;94337.50;10529377;28;20057;-73
2021/01/16 13:15:48;;;;;;;9.05;4.72;;;;;;;-3.97;66.13;94359.25;10528899;28;20380;-74
2021/01/16 13:20:52;;;;;;;19.35;6.80;;;;;;;-3.45;67.71;94361.56;10528704;28;20063;-73
2021/01/16 13:25:57;;;;;;;12.93;4.45;;;;;;;-3.14;60.66;94361.09;10529036;28;20028;-74
2021/01/16 13:31:01;;;;;;;7.75;5.03;;;;;;;-2.80;58.54;94351.44;10529243;28;20028;-74
2021/01/16 13:36:15;;;;;;;6.90;4.70;;;;;;;-3.13;57.68;94346.09;10541484;28;20441;-73
2021/01/16 13:41:17;;;;;;;8.45;5.22;;;;;;;-3.55;60.46;94364.53;10571451;28;20062;-73
2021/01/16 13:46:18;;;;;;;13.48;6.65;;;;;;;-4.06;63.70;94360.44;10571146;28;20035;-74
2021/01/16 13:51:20;;;;;;;9.38;5.07;;;;;;;-3.61;64.60;94367.97;10570200;28;20023;-74
2021/01/16 13:56:21;;;;;;;15.45;5.65;;;;;;;-3.29;63.45;94360.41;10570812;28;20038;-74
2021/01/16 14:01:37;;;;;;;10.07;6.03;;;;;;;-3.06;61.95;94360.06;10565157;28;20031;-73
2021/01/16 14:07:01;;;;;;;11.00;6.60;;;;;;;-3.26;60.26;94349.50;10528158;28;20041;-73
2021/01/16 14:12:03;;;;;;;12.10;6.75;;;;;;;-3.64;62.00;94361.28;10527945;28;20082;-74
2021/01/16 14:17:11;;;;;;;16.25;6.65;;;;;;;-3.49;63.71;94374.28;10508122;28;20085;-74
2021/01/16 14:22:12;;;;;;;13.40;5.55;;;;;;;-3.44;61.34;94368.44;10526924;28;20052;-74
2021/01/16 14:27:12;;;;;;;7.53;5.03;;;;;;;-3.42;64.94;94366.41;10527711;28;20048;-74
2021/01/16 14:32:24;;;;;;;11.70;6.23;;;;;;;-3.51;65.60;94371.03;10545688;28;20276;-73
2021/01/16 14:37:27;;;;;;;12.65;6.00;;;;;;;-3.46;66.59;94378.31;10570021;28;21086;-73
2021/01/16 14:42:29;;;;;;;12.52;5.65;;;;;;;-3.61;67.48;94387.13;10543092;28;20484;-74
2021/01/16 14:47:29;;;;;;;10.73;5.47;;;;;;;-3.98;72.01;94397.03;10528392;28;20051;-73
2021/01/16 14:52:34;;;;;;;18.35;7.05;;;;;;;-3.87;73.47;94386.97;10508992;28;20043;-73
2021/01/16 14:57:36;;;;;;;13.95;5.00;;;;;;;-3.98;71.69;94407.53;10527216;28;20463;-73
2021/01/16 15:02:37;;;;;;;13.60;6.25;;;;;;;-3.75;74.01;94400.38;10527109;28;20024;-74
2021/01/16 15:07:38;;;;;;;18.93;7.00;;;;;;;-4.10;74.03;94416.91;10557011;28;20487;-73
2021/01/16 15:12:41;;;;;;;17.60;6.05;;;;;;;-4.14;77.09;94419.09;10571708;28;20355;-73
2021/01/16 15:17:41;;;;;;;14.90;8.45;;;;;;;-3.96;81.01;94426.50;10574740;28;20031;-74
2021/01/16 15:22:43;;;;;;;21.10;8.00;;;;;;;-3.92;81.53;94426.13;10575951;28;20058;-74
2021/01/16 15:27:44;;;;;;;14.45;8.93;;;;;;;-3.96;83.18;94429.13;10533806;28;20270;-74
2021/01/16 15:32:58;;;;;;;17.63;7.47;;;;;;;-3.95;84.34;94432.56;10534103;28;20023;-74
2021/01/16 15:37:59;;;;;;;20.70;6.65;;;;;;;-3.81;84.23;94449.22;10562870;28;20035;-73
2021/01/16 15:43:11;;;;;;;14.88;6.55;;;;;;;-4.26;87.72;94440.78;10575214;28;20042;-73
2021/01/16 15:48:19;;;;;;;14.85;6.70;;;;;;;-4.52;90.10;94448.22;10557722;28;20478;-73
2021/01/16 15:53:20;;;;;;;;;;;;;;;-4.39;93.34;94463.28;10576191;28;20028;-73
2021/01/16 15:58:22;;;;;;;14.02;6.25;;;;;;;-4.36;94.12;94460.28;10575202;28;19908;-73
2021/01/16 16:03:25;;;;;;;16.20;7.30;;;;;;;-4.77;94.99;94460.06;10575149;28;20028;-73
2021/01/16 16:08:25;;;;;;;14.30;8.23;;;;;;;-4.79;98.38;94451.56;10574477;28;20116;-73
2021/01/16 16:13:25;;;;;;;16.13;8.25;;;;;;;-5.16;100.00;94438.47;10573858;28;20024;-74
2021/01/16 16:18:26;;;;;;;17.40;8.15;;;;;;;-5.18;100.00;94440.44;10574943;28;20100;-74
2021/01/16 16:23:26;;;;;;;18.65;11.10;;;;;;;-4.83;100.00;94456.38;10572243;28;20062;-74
2021/01/16 16:28:27;;;;;;;18.57;9.13;;;;;;;-4.75;100.00;94458.88;10573345;28;20105;-74
2021/01/16 16:33:27;;;;;;;25.50;10.38;;;;;;;-4.59;100.00;94463.09;10552850;28;20715;-74
2021/01/16 16:38:27;;;;;;;19.35;12.90;;;;;;;-4.44;100.00;94473.50;10565323;28;20173;-74
2021/01/16 16:43:28;;;;;;;19.40;11.00;;;;;;;-4.73;100.00;94480.50;10573158;28;20024;-73
2021/01/16 16:48:29;;;;;;;25.40;12.18;;;;;;;-4.69;100.00;94481.75;10532421;28;20530;-74
2021/01/16 16:53:29;;;;;;;18.70;7.90;;;;;;;-4.71;100.00;94491.59;10552571;28;20108;-73
2021/01/16 16:58:30;;;;;;;16.33;6.33;;;;;;;-4.79;100.00;94490.91;10572390;28;20500;-73
2021/01/16 17:03:30;;;;;;;23.52;12.15;;;;;;;-4.74;100.00;94491.16;10572560;28;20292;-75
2021/01/16 17:08:31;;;;;;;31.58;10.65;;;;;;;-4.73;100.00;94504.09;10521671;28;20403;-74
2021/01/16 17:13:31;;;;;;;24.80;8.97;;;;;;;-4.65;100.00;94505.78;10530177;28;20031;-74
2021/01/16 17:18:31;;;;;;;14.57;7.73;;;;;;;-4.70;100.00;94498.47;10529740;28;20290;-74
2021/01/16 17:23:32;;;;;;;20.23;9.47;;;;;;;-5.05;100.00;94500.88;10530291;28;20305;-73
2021/01/16 17:28:32;;;;;;;27.23;10.97;;;;;;;-4.73;100.00;94500.63;10529258;28;20380;-74
2021/01/16 17:33:32;;;;;;;17.33;10.20;;;;;;;-4.65;100.00;94500.53;10510167;28;20269;-74
2021/01/16 17:38:33;;;;;;;26.07;10.57;;;;;;;-4.73;100.00;94514.56;10565420;28;20027;-74
2021/01/16 17:43:34;;;;;;;25.35;10.57;;;;;;;-4.81;100.00;94510.22;10571082;28;20097;-75
2021/01/16 17:48:34;;;;;;;32.83;13.77;;;;;;;-4.85;100.00;94513.41;10555155;28;20180;-74
2021/01/16 17:53:34;;;;;;;22.37;11.50;;;;;;;-5.19;100.00;94523.47;10571754;28;20285;-74
2021/01/16 17:58:35;;;;;;;32.43;13.43;;;;;;;-5.12;100.00;94510.47;10570992;28;20356;-73
2021/01/16 18:03:35;;;;;;;25.48;11.57;;;;;;;-5.34;100.00;94512.97;10569557;28;20293;-73
2021/01/16 18:08:36;;;;;;;27.63;13.23;;;;;;;-5.52;100.00;94518.56;10570228;28;20060;-73
2021/01/16 18:13:36;;;;;;;19.77;10.00;;;;;;;-5.72;100.00;94517.44;10571585;28;20266;-74
2021/01/16 18:18:37;;;;;;;22.47;9.37;;;;;;;-5.73;100.00;94524.50;10570721;28;20747;-72
2021/01/16 18:23:38;;;;;;;20.58;9.85;;;;;;;-5.67;100.00;94522.97;10570466;28;20300;-73
2021/01/16 18:28:38;;;;;;;17.03;10.37;;;;;;;-5.93;100.00;94531.19;10571135;28;20387;-73
2021/01/16 18:33:39;;;;;;;25.23;10.80;;;;;;;-5.97;100.00;94537.81;10541831;28;20423;-73
2021/01/16 18:38:40;;;;;;;14.13;9.82;;;;;;;-5.93;100.00;94534.66;10562827;28;20277;-73
2021/01/16 18:43:40;;;;;;;15.60;9.02;;;;;;;-6.31;100.00;94536.44;10540509;28;20039;-73
2021/01/16 18:48:41;;;;;;;23.65;10.93;;;;;;;-6.03;100.00;94536.72;10533588;28;20704;-73
2021/01/16 18:53:44;;;;;;;17.02;11.02;;;;;;;-6.53;100.00;94536.22;10536985;28;20028;-73
2021/01/16 18:58:49;;;;;;;12.85;8.98;;;;;;;-6.57;100.00;94530.53;10537064;28;20116;-72
2021/01/16 19:03:51;;;;;;;18.80;10.48;;;;;;;-6.66;100.00;94536.78;10534760;28;20032;-73
2021/01/16 19:08:51;;;;;;;21.58;11.57;;;;;;;-6.95;100.00;94533.03;10535399;28;20459;-73
2021/01/16 19:13:51;;;;;;;18.02;11.85;;;;;;;-7.00;100.00;94534.50;10535584;28;20024;-73
2021/01/16 19:18:52;;;;;;;15.77;10.85;;;;;;;-7.21;100.00;94525.47;10535214;28;20078;-73
2021/01/16 19:23:53;;;;;;;20.35;13.98;;;;;;;-7.31;100.00;94530.88;10534457;28;20501;-73
2021/01/16 19:28:56;;;;;;;16.40;11.77;;;;;;;-7.40;100.00;94531.88;10534274;28;20436;-74
2021/01/16 19:33:56;;;;;;;21.75;11.05;;;;;;;-7.47;100.00;94533.53;10533234;28;20020;-74
2021/01/16 19:38:57;;;;;;;23.85;13.10;;;;;;;-7.43;100.00;94533.00;10571782;28;20023;-74
2021/01/16 19:43:57;;;;;;;16.90;10.20;;;;;;;-7.22;100.00;94531.66;10539368;28;20027;-75
2021/01/16 19:48:58;;;;;;;13.73;10.50;;;;;;;-7.24;100.00;94531.81;10533334;28;20266;-74
2021/01/16 19:53:58;;;;;;;20.73;9.95;;;;;;;-7.39;100.00;94533.50;10549862;28;20269;-74
2021/01/16 19:58:58;;;;;;;16.93;10.87;;;;;;;-7.31;100.00;94536.09;10574638;28;20065;-74
2021/01/16 20:03:59;;;;;;;18.63;11.90;;;;;;;-7.24;100.00;94538.81;10574470;28;20300;-74
2021/01/16 20:08:59;;;;;;;14.68;8.35;;;;;;;-7.50;100.00;94536.47;10576480;28;20156;-74
2021/01/16 20:14:00;;;;;;;20.50;9.88;;;;;;;-7.55;100.00;94529.13;10575842;28;20380;-73
2021/01/16 20:19:00;;;;;;;15.15;9.35;;;;;;;-7.69;100.00;94535.03;10575162;28;20773;-72
2021/01/16 20:24:01;;;;;;;19.57;10.90;;;;;;;-7.63;100.00;94535.19;10562033;28;20387;-73
2021/01/16 20:29:02;;;;;;;23.17;12.50;;;;;;;-7.83;100.00;94532.09;10532948;28;20274;-73
2021/01/16 20:34:03;;;;;;;13.60;9.10;;;;;;;-7.88;100.00;94539.63;10531827;28;20277;-73
2021/01/16 20:39:05;;;;;;;17.13;10.07;;;;;;;-7.87;100.00;94535.22;10569831;28;20027;-73
2021/01/16 20:44:05;;;;;;;17.35;7.47;;;;;;;-7.90;100.00;94525.91;10574269;28;20497;-73
2021/01/16 20:49:06;;;;;;;11.45;6.85;;;;;;;-7.89;100.00;94530.16;10573907;28;20031;-73
2021/01/16 20:54:07;;;;;;;18.58;9.23;;;;;;;-7.91;100.00;94517.28;10529239;28;20384;-73
2021/01/16 20:59:07;;;;;;;14.70;7.88;;;;;;;-7.95;100.00;94528.22;10532650;28;20028;-73
2021/01/16 21:04:07;;;;;;;17.10;7.60;;;;;;;-7.94;100.00;94527.22;10571934;28;20487;-74
2021/01/16 21:09:09;;;;;;;19.73;8.70;;;;;;;-7.98;100.00;94523.31;10571049;28;20024;-73
2021/01/16 21:14:09;;;;;;;20.92;9.48;;;;;;;-8.01;100.00;94526.25;10555955;28;20292;-73
2021/01/16 21:19:10;;;;;;;20.02;12.75;;;;;;;-8.14;100.00;94530.16;10572400;28;20062;-73
2021/01/16 21:24:11;;;;;;;19.77;11.82;;;;;;;-8.11;100.00;94535.03;10572366;28;20073;-73
2021/01/16 21:29:16;;;;;;;21.05;10.60;;;;;;;-8.16;100.00;94532.13;10573421;28;20030;-73
2021/01/16 21:34:16;;;;;;;15.90;13.25;;;;;;;-8.01;100.00;94518.44;10572352;28;20024;-73
2021/01/16 21:39:17;;;;;;;15.45;10.75;;;;;;;-7.81;100.00;94519.72;10572326;28;20027;-73
2021/01/16 21:44:17;;;;;;;18.10;10.10;;;;;;;-7.65;100.00;94524.09;10571690;28;20028;-74
2021/01/16 21:49:17;;;;;;;19.45;12.48;;;;;;;-7.79;100.00;94517.75;10572921;28;20281;-74
2021/01/16 21:54:18;;;;;;;17.33;10.93;;;;;;;-7.91;100.00;94525.13;10571279;28;20027;-73
2021/01/16 21:59:18;;;;;;;20.42;14.45;;;;;;;-7.97;100.00;94524.94;10537676;28;20278;-73
2021/01/16 22:04:19;;;;;;;22.20;16.03;;;;;;;-8.07;100.00;94515.50;10528589;28;20441;-73
2021/01/16 22:09:21;;;;;;;17.63;13.93;;;;;;;-8.06;100.00;94518.94;10568598;28;20752;-73
2021/01/16 22:14:21;;;;;;;20.90;12.27;;;;;;;-8.09;100.00;94517.47;10570051;28;20352;-73
2021/01/16 22:19:22;;;;;;;18.33;12.07;;;;;;;-7.91;100.00;94512.06;10562312;28;20440;-73
2021/01/16 22:24:22;;;;;;;20.10;11.90;;;;;;;-8.15;100.00;94518.13;10578116;28;20316;-74
2021/01/16 22:29:24;;;;;;;11.70;9.68;;;;;;;-8.17;100.00;94501.81;10580418;28;20355;-74
2021/01/16 22:34:24;;;;;;;20.73;11.57;;;;;;;-8.20;100.00;94506.53;10579557;28;20016;-73
2021/01/16 22:39:24;;;;;;;16.80;9.57;;;;;;;-8.20;100.00;94499.53;10578538;28;20024;-73
2021/01/16 22:44:25;;;;;;;22.15;10.75;;;;;;;-8.24;100.00;94503.44;10579147;28;20045;-73
2021/01/16 22:49:25;;;;;;;19.83;10.45;;;;;;;-8.28;100.00;94497.75;10579873;28;20023;-73
2021/01/16 22:54:26;;;;;;;11.88;7.88;;;;;;;-8.24;100.00;94506.06;10565949;28;20499;-74
2021/01/16 22:59:26;;;;;;;19.90;9.97;;;;;;;-8.29;100.00;94505.72;10535982;28;20486;-73
2021/01/16 23:04:27;;;;;;;17.10;9.35;;;;;;;-8.34;100.00;94508.00;10557298;28;20775;-73